• Join FlightAware (Why Join?)
  • Login
  • US Flag 
06:30PM EDT


 

Airport Tracker/Info


-or-


 

Live Flight TrackerFlight Track Log ✈ UAL4380 ✈ 26-Feb-2014 ✈ KCLT - KCLE

Flight Track Log - Related Links

Times and Time Zones

All times are in EST time to prevent confusion due to time zone crossing. See the UAL4380 flight status page for this flight to view local times or setup timezone preferences in your user account.

Time Position Orientation Groundspeed Altitude Reporting Facility
EST Latitude Longitude Course Direction KTS MPH feet Rate Location/Type
06:31PM 35.2289 -80.9572 354° North 159 183 1,800  Level Atlanta Center
06:31PM 35.2586 -80.9739 335° Northwest 184 212 3,100 1,680 Climbing Atlanta Center
06:32PM 35.2800 -80.9958 320° Northwest 241 277 3,800 2,400 Climbing Atlanta Center
06:33PM 35.3178 -81.0072 346° North 262 302 5,600 3,180 Climbing Atlanta Center
06:33PM 35.3467 -80.9986 14° North 253 291 7,000 2,460 Climbing Atlanta Center
06:33PM 35.3800 -80.9922 North 260 299 7,900 1,980 Climbing Atlanta Center
06:34PM 35.6317 -81.0055 354° North  Level Estimated
06:34PM 35.4194 -80.9806 14° North 274 315 9,000  Level Atlanta Center
06:35PM 35.7362 -81.0197 354° North  Level Estimated
06:35PM 35.4669 -80.9661 14° North 287 330 10,700  Level Atlanta Center
06:35PM 35.4961 -80.9572 14° North 295 339 11,500 1,260 Climbing Atlanta Center
06:36PM 35.8407 -81.0340 354° North  Level Estimated
06:36PM 35.5811 -80.9389 10° North 300 345 12,500  Level Atlanta Center
06:37PM 35.6672 -80.9611 348° North 317 365 13,700 1,260 Climbing Atlanta Center
06:38PM 35.7678 -80.9831 350° North 342 394 15,100 1,560 Climbing Atlanta Center
06:39PM 35.8622 -81.0050 349° North 349 402 16,900 1,680 Climbing Atlanta Center
06:40PM 35.9628 -81.0269 350° North 354 407 18,500 1,440 Climbing Atlanta Center
06:41PM 36.0636 -81.0514 349° North 354 407 19,800 1,380 Climbing Atlanta Center
06:42PM 36.1642 -81.0733 350° North 354 407 21,300 1,380 Climbing Atlanta Center
06:43PM 36.2692 -81.0978 349° North 365 420 22,600 1,440 Climbing Atlanta Center
06:44PM 36.3719 -81.1225 349° North 372 428 24,200 1,800 Climbing Atlanta Center
06:45PM 36.4725 -81.1447 350° North 372 428 26,200 1,620 Climbing Atlanta Center
06:46PM 36.5711 -81.1642 351° North 362 417 27,500 1,320 Climbing Atlanta Center
06:47PM 36.6697 -81.1892 349° North 357 411 28,900 720 Climbing Atlanta Center
06:48PM 36.7786 -81.2164 349° North 357 411 29,000 300 Climbing Atlanta Center
06:49PM 36.8897 -81.2436 349° North 380 437 29,500 840 Climbing Atlanta Center
06:51PM 37.1564 -81.3050 350° North 401 461 31,900 720 Climbing Indianapolis Center
06:52PM 37.2683 -81.3317 349° North 403 464 32,000  Climbing Indianapolis Center
06:53PM 37.3881 -81.3600 349° North 407 468 32,000  Level Indianapolis Center
06:54PM 37.4947 -81.3861 349° North 403 464 32,000  Level Indianapolis Center
06:55PM 37.6081 -81.4111 350° North 409 471 32,000  Level Indianapolis Center
06:57PM 37.7167 -81.4386 349° North 410 472 32,000  Level Indianapolis Center
06:58PM 37.8347 -81.4664 349° North 409 471 32,000  Level Indianapolis Center
06:59PM 37.9464 -81.4947 349° North 409 471 32,000  Level Indianapolis Center
07:00PM 38.0619 -81.5242 349° North 414 476 32,000  Level Indianapolis Center
07:01PM 38.1992 -81.5581 349° North 417 480 32,000  Level Indianapolis Center
07:02PM 38.3139 -81.5853 349° North 417 480 32,000  Level Indianapolis Center
07:03PM 38.4286 -81.6133 349° North 417 480 32,000  Level Indianapolis Center
07:04PM 38.5444 -81.6411 349° North 417 480 32,000  Level Indianapolis Center
07:05PM 38.6619 -81.6694 349° North 417 480 32,000  Level Indianapolis Center
07:06PM 38.7797 -81.6981 349° North 417 480 32,000  Level Indianapolis Center
07:07PM 38.8958 -81.7242 350° North 417 480 32,000  Level Indianapolis Center
07:08PM 39.0158 -81.7453 352° North 428 493 32,000  Level Indianapolis Center
07:09PM 39.1322 -81.7647 353° North 424 488 32,000  Level Indianapolis Center
07:10PM 39.2478 -81.7858 352° North 422 486 32,000  Level Indianapolis Center
07:11PM 39.3856 -81.8094 352° North 418 481 32,000 -480 Level Indianapolis Center
07:12PM 39.5019 -81.8286 353° North 418 481 31,100 -1,800 Descending Indianapolis Center
07:13PM 39.6136 -81.8486 352° North 412 474 28,400 -2,520 Descending Indianapolis Center
07:14PM 39.7181 -81.8664 353° North 418 481 25,900 -2,220 Descending Indianapolis Center
07:15PM 39.8531 -81.8892 353° North 412 474 23,900 -1,680 Descending Indianapolis Center
07:16PM 39.9636 -81.9086 352° North 406 467 22,500 -960 Descending Indianapolis Center
07:17PM 40.0697 -81.9272 352° North 392 451 22,000 -840 Descending Indianapolis Center
07:18PM 40.1831 -81.9036 North 414 476 20,900 -1,380 Descending Indianapolis Center
07:19PM 40.3064 -81.8625 14° North 408 470 19,200 -1,560 Descending Indianapolis Center
07:20PM 40.4192 -81.8264 14° North 409 471 17,700 -1,500 Descending Indianapolis Center
07:21PM 40.5272 -81.7903 14° North 403 464 16,100 -1,800 Descending Indianapolis Center
07:22PM 40.6319 -81.7558 14° North 390 449 14,100 -2,100 Descending Indianapolis Center
07:23PM 40.7322 -81.7222 14° North 376 433 11,800 -1,980 Descending Indianapolis Center
07:24PM 40.8331 -81.6878 14° North 370 426 10,100 -840 Descending Indianapolis Center
07:26PM 40.9539 -81.6492 14° North 348 400 10,000 -120 Descending Cleveland Center
07:26PM 40.9758 -81.6528 353° North 351 404 10,000  Level Cleveland Center
07:27PM 41.0436 -81.6800 343° North 331 381 10,000 -120 Level Cleveland Center
07:27PM 41.0653 -81.6875 345° North 334 384 9,900 60 Descending Cleveland Center
07:28PM 41.1389 -81.7175 343° North 330 380 10,100 60 Climbing Cleveland Center
07:28PM 41.1544 -81.7222 347° North 333 383 10,000 -1,140 Descending Cleveland Center
07:29PM 41.2194 -81.7306 354° North 264 304 9,000 -1,500 Descending Cleveland Center
07:29PM 41.2314 -81.7314 357° North 271 312 8,500 -2,460 Descending Cleveland Center
07:30PM 41.2928 -81.7339 358° North 256 295 6,500 -2,460 Descending Cleveland Center
07:30PM 41.3042 -81.7289 18° North 259 298 6,000 -2,460 Descending Cleveland Center
07:31PM 41.3756 -81.7006 17° North 260 299 3,400 -1,620 Descending Cleveland Center
07:32PM 41.4228 -81.7131 349° North 210 242 3,000 -420 Descending Cleveland Center
07:32PM 41.4300 -81.7186 330° Northwest 223 257 3,000 -240 Level Cleveland Center
07:33PM 41.4611 -81.7528 321° Northwest 177 204 2,800 -300 Descending Cleveland Center
07:33PM 41.4636 -81.7722 280° West 197 227 2,700 -840 Descending Cleveland Center
07:34PM 41.4486 -81.7953 229° Southwest 112 129 2,000 -900 Descending Cleveland Center
07:34PM 41.4450 -81.8031 238° Southwest 139 160 1,800 -600 Descending Cleveland Center
07:35PM 41.4292 -81.8258 227° Southwest 109 125 1,400 -600 Descending Cleveland Center
07:35PM 41.4256 -81.8350 242° Southwest 118 136 1,200 -420 Descending Cleveland Center
07:36PM 41.4036 -81.8669 228° Southwest 115 132 900 -300 Descending Cleveland Center